sensor_id;sensor_type;location;lat;lon;timestamp;P1;durP1;ratioP1;P2;durP2;ratioP2
18104;SDS011;9179;50.968;3.134;2024-02-28T00:01:08;9.88;;;7.82;;
18104;SDS011;9179;50.968;3.134;2024-02-28T00:03:35;9.90;;;8.48;;
18104;SDS011;9179;50.968;3.134;2024-02-28T00:06:02;9.68;;;8.73;;
18104;SDS011;9179;50.968;3.134;2024-02-28T00:08:29;9.38;;;8.30;;
18104;SDS011;9179;50.968;3.134;2024-02-28T00:10:56;10.43;;;8.57;;
18104;SDS011;9179;50.968;3.134;2024-02-28T00:13:24;10.65;;;8.77;;
18104;SDS011;9179;50.968;3.134;2024-02-28T00:15:51;9.05;;;7.47;;
18104;SDS011;9179;50.968;3.134;2024-02-28T00:18:18;10.40;;;7.57;;
18104;SDS011;9179;50.968;3.134;2024-02-28T00:20:45;9.82;;;8.90;;
18104;SDS011;9179;50.968;3.134;2024-02-28T00:23:12;8.95;;;8.15;;
18104;SDS011;9179;50.968;3.134;2024-02-28T00:25:39;12.07;;;7.97;;
18104;SDS011;9179;50.968;3.134;2024-02-28T00:28:06;10.65;;;9.55;;
18104;SDS011;9179;50.968;3.134;2024-02-28T00:30:34;10.05;;;8.40;;
18104;SDS011;9179;50.968;3.134;2024-02-28T00:33:01;10.57;;;8.57;;
18104;SDS011;9179;50.968;3.134;2024-02-28T00:35:31;13.88;;;9.90;;
18104;SDS011;9179;50.968;3.134;2024-02-28T00:37:59;11.40;;;9.18;;
18104;SDS011;9179;50.968;3.134;2024-02-28T00:40:26;11.93;;;10.73;;
18104;SDS011;9179;50.968;3.134;2024-02-28T00:42:53;12.43;;;9.10;;
18104;SDS011;9179;50.968;3.134;2024-02-28T00:45:20;10.68;;;8.88;;
18104;SDS011;9179;50.968;3.134;2024-02-28T00:47:48;10.52;;;9.35;;
18104;SDS011;9179;50.968;3.134;2024-02-28T00:50:15;12.77;;;10.07;;
18104;SDS011;9179;50.968;3.134;2024-02-28T00:52:42;11.38;;;9.27;;
18104;SDS011;9179;50.968;3.134;2024-02-28T00:55:09;11.60;;;10.40;;
18104;SDS011;9179;50.968;3.134;2024-02-28T00:57:36;12.55;;;9.75;;
18104;SDS011;9179;50.968;3.134;2024-02-28T01:00:03;11.32;;;9.02;;
18104;SDS011;9179;50.968;3.134;2024-02-28T01:02:31;10.32;;;9.23;;
18104;SDS011;9179;50.968;3.134;2024-02-28T01:05:00;10.77;;;9.77;;
18104;SDS011;9179;50.968;3.134;2024-02-28T01:07:27;15.45;;;9.82;;
18104;SDS011;9179;50.968;3.134;2024-02-28T01:09:54;11.48;;;10.20;;
18104;SDS011;9179;50.968;3.134;2024-02-28T01:12:20;12.15;;;10.25;;
18104;SDS011;9179;50.968;3.134;2024-02-28T01:14:47;10.50;;;9.25;;
18104;SDS011;9179;50.968;3.134;2024-02-28T01:17:14;12.70;;;10.45;;
18104;SDS011;9179;50.968;3.134;2024-02-28T01:19:41;10.57;;;9.57;;
18104;SDS011;9179;50.968;3.134;2024-02-28T01:22:09;12.40;;;9.70;;
18104;SDS011;9179;50.968;3.134;2024-02-28T01:24:37;11.25;;;10.18;;
18104;SDS011;9179;50.968;3.134;2024-02-28T01:27:04;11.45;;;9.55;;
18104;SDS011;9179;50.968;3.134;2024-02-28T01:29:31;10.38;;;9.38;;
18104;SDS011;9179;50.968;3.134;2024-02-28T01:31:57;10.60;;;8.98;;
18104;SDS011;9179;50.968;3.134;2024-02-28T01:34:24;10.45;;;9.32;;
18104;SDS011;9179;50.968;3.134;2024-02-28T01:36:51;15.60;;;9.30;;
18104;SDS011;9179;50.968;3.134;2024-02-28T01:39:20;9.95;;;8.73;;
18104;SDS011;9179;50.968;3.134;2024-02-28T01:41:50;18.60;;;9.60;;
18104;SDS011;9179;50.968;3.134;2024-02-28T01:44:18;12.07;;;10.73;;
18104;SDS011;9179;50.968;3.134;2024-02-28T01:46:45;13.35;;;9.80;;
18104;SDS011;9179;50.968;3.134;2024-02-28T01:49:13;11.95;;;10.75;;
18104;SDS011;9179;50.968;3.134;2024-02-28T01:51:40;12.38;;;10.27;;
18104;SDS011;9179;50.968;3.134;2024-02-28T01:54:08;11.57;;;10.38;;
18104;SDS011;9179;50.968;3.134;2024-02-28T01:56:36;12.82;;;9.63;;
18104;SDS011;9179;50.968;3.134;2024-02-28T01:59:05;9.93;;;9.05;;
18104;SDS011;9179;50.968;3.134;2024-02-28T02:01:33;10.65;;;9.07;;
18104;SDS011;9179;50.968;3.134;2024-02-28T02:04:00;10.88;;;9.77;;
18104;SDS011;9179;50.968;3.134;2024-02-28T02:06:27;11.15;;;9.60;;
18104;SDS011;9179;50.968;3.134;2024-02-28T02:08:54;11.45;;;10.35;;
18104;SDS011;9179;50.968;3.134;2024-02-28T02:11:21;14.27;;;10.52;;
18104;SDS011;9179;50.968;3.134;2024-02-28T02:13:51;11.07;;;9.90;;
18104;SDS011;9179;50.968;3.134;2024-02-28T02:16:19;12.90;;;10.68;;
18104;SDS011;9179;50.968;3.134;2024-02-28T02:18:47;13.93;;;10.00;;
18104;SDS011;9179;50.968;3.134;2024-02-28T02:21:15;11.75;;;10.52;;
18104;SDS011;9179;50.968;3.134;2024-02-28T02:23:47;12.40;;;11.20;;
18104;SDS011;9179;50.968;3.134;2024-02-28T02:26:14;12.30;;;10.27;;
18104;SDS011;9179;50.968;3.134;2024-02-28T02:28:40;13.85;;;12.00;;
18104;SDS011;9179;50.968;3.134;2024-02-28T02:31:07;12.07;;;10.98;;
18104;SDS011;9179;50.968;3.134;2024-02-28T02:33:34;15.00;;;13.00;;
18104;SDS011;9179;50.968;3.134;2024-02-28T02:36:01;12.18;;;10.98;;
18104;SDS011;9179;50.968;3.134;2024-02-28T02:38:29;12.45;;;11.20;;
18104;SDS011;9179;50.968;3.134;2024-02-28T02:40:57;14.75;;;12.68;;
18104;SDS011;9179;50.968;3.134;2024-02-28T02:43:24;12.95;;;11.75;;
18104;SDS011;9179;50.968;3.134;2024-02-28T02:45:51;13.05;;;11.77;;
18104;SDS011;9179;50.968;3.134;2024-02-28T02:48:18;12.15;;;10.88;;
18104;SDS011;9179;50.968;3.134;2024-02-28T02:50:45;14.45;;;12.93;;
18104;SDS011;9179;50.968;3.134;2024-02-28T02:53:12;12.75;;;11.45;;
18104;SDS011;9179;50.968;3.134;2024-02-28T02:55:39;13.50;;;11.77;;
18104;SDS011;9179;50.968;3.134;2024-02-28T02:58:08;14.40;;;11.63;;
18104;SDS011;9179;50.968;3.134;2024-02-28T03:00:35;13.07;;;11.70;;
18104;SDS011;9179;50.968;3.134;2024-02-28T03:03:01;12.40;;;11.20;;
18104;SDS011;9179;50.968;3.134;2024-02-28T03:05:29;14.18;;;12.05;;
18104;SDS011;9179;50.968;3.134;2024-02-28T03:07:55;14.27;;;12.75;;
18104;SDS011;9179;50.968;3.134;2024-02-28T03:10:22;13.18;;;10.27;;
18104;SDS011;9179;50.968;3.134;2024-02-28T03:12:49;12.45;;;11.15;;
18104;SDS011;9179;50.968;3.134;2024-02-28T03:15:18;12.00;;;10.60;;
18104;SDS011;9179;50.968;3.134;2024-02-28T03:17:45;12.88;;;10.25;;
18104;SDS011;9179;50.968;3.134;2024-02-28T03:20:12;13.00;;;10.15;;
18104;SDS011;9179;50.968;3.134;2024-02-28T03:22:39;11.05;;;9.18;;
18104;SDS011;9179;50.968;3.134;2024-02-28T03:25:07;9.98;;;9.13;;
18104;SDS011;9179;50.968;3.134;2024-02-28T03:27:34;10.93;;;9.82;;
18104;SDS011;9179;50.968;3.134;2024-02-28T03:30:01;10.38;;;8.73;;
18104;SDS011;9179;50.968;3.134;2024-02-28T03:32:30;10.48;;;8.55;;
18104;SDS011;9179;50.968;3.134;2024-02-28T03:34:57;11.10;;;8.57;;
18104;SDS011;9179;50.968;3.134;2024-02-28T03:37:24;10.35;;;8.82;;
18104;SDS011;9179;50.968;3.134;2024-02-28T03:39:51;10.20;;;8.60;;
18104;SDS011;9179;50.968;3.134;2024-02-28T03:42:18;15.07;;;9.18;;
18104;SDS011;9179;50.968;3.134;2024-02-28T03:44:45;11.63;;;9.27;;
18104;SDS011;9179;50.968;3.134;2024-02-28T03:47:12;10.80;;;9.65;;
18104;SDS011;9179;50.968;3.134;2024-02-28T03:49:40;9.93;;;9.07;;
18104;SDS011;9179;50.968;3.134;2024-02-28T03:52:07;10.68;;;9.57;;
18104;SDS011;9179;50.968;3.134;2024-02-28T03:54:34;11.60;;;10.35;;
18104;SDS011;9179;50.968;3.134;2024-02-28T03:57:01;10.35;;;9.30;;
18104;SDS011;9179;50.968;3.134;2024-02-28T03:59:28;10.30;;;9.18;;
18104;SDS011;9179;50.968;3.134;2024-02-28T04:01:55;10.90;;;9.88;;
18104;SDS011;9179;50.968;3.134;2024-02-28T04:04:22;10.25;;;9.25;;
18104;SDS011;9179;50.968;3.134;2024-02-28T04:06:50;9.90;;;8.90;;
18104;SDS011;9179;50.968;3.134;2024-02-28T04:09:18;12.13;;;8.93;;
18104;SDS011;9179;50.968;3.134;2024-02-28T04:11:45;10.18;;;9.18;;
18104;SDS011;9179;50.968;3.134;2024-02-28T04:14:12;9.23;;;8.43;;
18104;SDS011;9179;50.968;3.134;2024-02-28T04:16:40;8.88;;;7.97;;
18104;SDS011;9179;50.968;3.134;2024-02-28T04:19:09;11.70;;;8.45;;
18104;SDS011;9179;50.968;3.134;2024-02-28T04:21:35;8.80;;;7.90;;
18104;SDS011;9179;50.968;3.134;2024-02-28T04:24:04;8.70;;;7.90;;
18104;SDS011;9179;50.968;3.134;2024-02-28T04:26:32;10.20;;;8.40;;
18104;SDS011;9179;50.968;3.134;2024-02-28T04:28:59;9.35;;;8.43;;
18104;SDS011;9179;50.968;3.134;2024-02-28T04:31:28;9.18;;;8.38;;
18104;SDS011;9179;50.968;3.134;2024-02-28T04:33:54;9.05;;;8.13;;
18104;SDS011;9179;50.968;3.134;2024-02-28T04:36:21;8.75;;;7.90;;
18104;SDS011;9179;50.968;3.134;2024-02-28T04:38:48;9.95;;;8.23;;
18104;SDS011;9179;50.968;3.134;2024-02-28T04:41:17;8.75;;;7.28;;
18104;SDS011;9179;50.968;3.134;2024-02-28T04:43:44;9.82;;;6.68;;
18104;SDS011;9179;50.968;3.134;2024-02-28T04:46:11;8.20;;;7.43;;
18104;SDS011;9179;50.968;3.134;2024-02-28T04:48:37;11.30;;;8.10;;
18104;SDS011;9179;50.968;3.134;2024-02-28T04:51:05;12.40;;;8.50;;
18104;SDS011;9179;50.968;3.134;2024-02-28T04:53:31;8.75;;;8.02;;
18104;SDS011;9179;50.968;3.134;2024-02-28T04:55:59;13.38;;;8.00;;
18104;SDS011;9179;50.968;3.134;2024-02-28T04:58:27;10.60;;;6.72;;
18104;SDS011;9179;50.968;3.134;2024-02-28T05:00:54;10.07;;;7.13;;
18104;SDS011;9179;50.968;3.134;2024-02-28T05:03:21;7.18;;;6.47;;
18104;SDS011;9179;50.968;3.134;2024-02-28T05:05:50;7.30;;;6.60;;
18104;SDS011;9179;50.968;3.134;2024-02-28T05:08:17;7.45;;;6.75;;
18104;SDS011;9179;50.968;3.134;2024-02-28T05:10:45;8.45;;;6.80;;
18104;SDS011;9179;50.968;3.134;2024-02-28T05:13:12;10.85;;;7.50;;
18104;SDS011;9179;50.968;3.134;2024-02-28T05:15:41;8.13;;;6.78;;
18104;SDS011;9179;50.968;3.134;2024-02-28T05:18:08;9.48;;;7.10;;
18104;SDS011;9179;50.968;3.134;2024-02-28T05:20:34;8.05;;;7.20;;
18104;SDS011;9179;50.968;3.134;2024-02-28T05:23:01;6.95;;;6.25;;
18104;SDS011;9179;50.968;3.134;2024-02-28T05:25:28;7.90;;;6.38;;
18104;SDS011;9179;50.968;3.134;2024-02-28T05:27:55;9.13;;;6.90;;
18104;SDS011;9179;50.968;3.134;2024-02-28T05:30:22;7.40;;;6.50;;
18104;SDS011;9179;50.968;3.134;2024-02-28T05:32:51;7.38;;;6.68;;
18104;SDS011;9179;50.968;3.134;2024-02-28T05:35:18;7.18;;;5.53;;
18104;SDS011;9179;50.968;3.134;2024-02-28T05:37:45;8.38;;;6.13;;
18104;SDS011;9179;50.968;3.134;2024-02-28T05:40:12;6.82;;;6.00;;
18104;SDS011;9179;50.968;3.134;2024-02-28T05:42:39;7.75;;;6.28;;
18104;SDS011;9179;50.968;3.134;2024-02-28T05:45:07;7.18;;;5.80;;
18104;SDS011;9179;50.968;3.134;2024-02-28T05:47:35;10.70;;;5.30;;
18104;SDS011;9179;50.968;3.134;2024-02-28T05:50:04;7.70;;;5.88;;
18104;SDS011;9179;50.968;3.134;2024-02-28T05:52:32;7.63;;;5.85;;
18104;SDS011;9179;50.968;3.134;2024-02-28T05:54:59;7.63;;;5.32;;
18104;SDS011;9179;50.968;3.134;2024-02-28T05:57:26;6.50;;;5.50;;
18104;SDS011;9179;50.968;3.134;2024-02-28T05:59:53;6.15;;;5.55;;
18104;SDS011;9179;50.968;3.134;2024-02-28T06:02:20;6.75;;;5.43;;
18104;SDS011;9179;50.968;3.134;2024-02-28T06:04:47;6.90;;;5.38;;
18104;SDS011;9179;50.968;3.134;2024-02-28T06:07:15;6.45;;;5.85;;
18104;SDS011;9179;50.968;3.134;2024-02-28T06:09:42;8.05;;;6.35;;
18104;SDS011;9179;50.968;3.134;2024-02-28T06:12:09;7.82;;;5.63;;
18104;SDS011;9179;50.968;3.134;2024-02-28T06:14:36;6.63;;;5.40;;
18104;SDS011;9179;50.968;3.134;2024-02-28T06:17:03;6.53;;;5.32;;
18104;SDS011;9179;50.968;3.134;2024-02-28T06:19:30;9.10;;;5.97;;
18104;SDS011;9179;50.968;3.134;2024-02-28T06:21:56;6.30;;;4.97;;
18104;SDS011;9179;50.968;3.134;2024-02-28T06:24:25;9.95;;;6.25;;
18104;SDS011;9179;50.968;3.134;2024-02-28T06:26:52;7.95;;;5.20;;
18104;SDS011;9179;50.968;3.134;2024-02-28T06:29:19;7.68;;;6.25;;
18104;SDS011;9179;50.968;3.134;2024-02-28T06:31:49;7.03;;;5.35;;
18104;SDS011;9179;50.968;3.134;2024-02-28T06:34:17;7.05;;;5.20;;
18104;SDS011;9179;50.968;3.134;2024-02-28T06:36:44;5.15;;;4.75;;
18104;SDS011;9179;50.968;3.134;2024-02-28T06:39:11;6.78;;;4.65;;
18104;SDS011;9179;50.968;3.134;2024-02-28T06:41:39;7.30;;;5.38;;
18104;SDS011;9179;50.968;3.134;2024-02-28T06:44:06;6.70;;;5.20;;
18104;SDS011;9179;50.968;3.134;2024-02-28T06:46:32;4.95;;;4.53;;
18104;SDS011;9179;50.968;3.134;2024-02-28T06:48:59;6.63;;;5.70;;
18104;SDS011;9179;50.968;3.134;2024-02-28T06:51:26;5.80;;;5.22;;
18104;SDS011;9179;50.968;3.134;2024-02-28T06:53:53;8.93;;;5.18;;
18104;SDS011;9179;50.968;3.134;2024-02-28T06:56:20;5.15;;;4.65;;
18104;SDS011;9179;50.968;3.134;2024-02-28T06:58:48;5.20;;;4.55;;
18104;SDS011;9179;50.968;3.134;2024-02-28T07:01:15;5.25;;;4.75;;
18104;SDS011;9179;50.968;3.134;2024-02-28T07:03:44;5.57;;;5.03;;
18104;SDS011;9179;50.968;3.134;2024-02-28T07:06:11;7.35;;;5.45;;
18104;SDS011;9179;50.968;3.134;2024-02-28T07:08:38;8.68;;;5.28;;
18104;SDS011;9179;50.968;3.134;2024-02-28T07:11:05;7.38;;;5.90;;
18104;SDS011;9179;50.968;3.134;2024-02-28T07:13:38;10.73;;;6.03;;
18104;SDS011;9179;50.968;3.134;2024-02-28T07:16:07;7.95;;;6.28;;
18104;SDS011;9179;50.968;3.134;2024-02-28T07:18:34;7.57;;;5.68;;
18104;SDS011;9179;50.968;3.134;2024-02-28T07:21:01;5.70;;;5.15;;
18104;SDS011;9179;50.968;3.134;2024-02-28T07:23:28;7.72;;;5.85;;
18104;SDS011;9179;50.968;3.134;2024-02-28T07:25:55;7.25;;;5.68;;
18104;SDS011;9179;50.968;3.134;2024-02-28T07:28:22;7.68;;;5.32;;
18104;SDS011;9179;50.968;3.134;2024-02-28T07:30:49;5.95;;;5.35;;
18104;SDS011;9179;50.968;3.134;2024-02-28T07:33:17;6.55;;;5.82;;
18104;SDS011;9179;50.968;3.134;2024-02-28T07:35:44;6.32;;;5.20;;
18104;SDS011;9179;50.968;3.134;2024-02-28T07:38:12;4.80;;;4.40;;
18104;SDS011;9179;50.968;3.134;2024-02-28T07:40:39;5.75;;;5.18;;
18104;SDS011;9179;50.968;3.134;2024-02-28T07:43:06;5.88;;;4.88;;
18104;SDS011;9179;50.968;3.134;2024-02-28T07:45:33;6.35;;;5.13;;
18104;SDS011;9179;50.968;3.134;2024-02-28T07:48:00;5.25;;;4.70;;
18104;SDS011;9179;50.968;3.134;2024-02-28T07:50:28;6.30;;;4.75;;
18104;SDS011;9179;50.968;3.134;2024-02-28T07:52:55;7.05;;;5.28;;
18104;SDS011;9179;50.968;3.134;2024-02-28T07:55:22;5.35;;;4.65;;
18104;SDS011;9179;50.968;3.134;2024-02-28T07:57:50;5.38;;;4.88;;
18104;SDS011;9179;50.968;3.134;2024-02-28T08:00:17;5.10;;;4.60;;
18104;SDS011;9179;50.968;3.134;2024-02-28T08:02:45;6.68;;;5.50;;
18104;SDS011;9179;50.968;3.134;2024-02-28T08:05:13;7.50;;;5.40;;
18104;SDS011;9179;50.968;3.134;2024-02-28T08:07:41;8.45;;;4.85;;
18104;SDS011;9179;50.968;3.134;2024-02-28T08:10:09;7.60;;;4.55;;
18104;SDS011;9179;50.968;3.134;2024-02-28T08:12:36;7.18;;;5.60;;
18104;SDS011;9179;50.968;3.134;2024-02-28T08:15:04;6.00;;;4.97;;
18104;SDS011;9179;50.968;3.134;2024-02-28T08:17:31;7.55;;;4.40;;
18104;SDS011;9179;50.968;3.134;2024-02-28T08:19:58;5.70;;;4.40;;
18104;SDS011;9179;50.968;3.134;2024-02-28T08:22:25;6.38;;;4.70;;
18104;SDS011;9179;50.968;3.134;2024-02-28T08:24:54;6.05;;;5.38;;
18104;SDS011;9179;50.968;3.134;2024-02-28T08:27:21;6.68;;;6.07;;
18104;SDS011;9179;50.968;3.134;2024-02-28T08:29:48;11.18;;;6.72;;
18104;SDS011;9179;50.968;3.134;2024-02-28T08:32:17;8.32;;;5.00;;
18104;SDS011;9179;50.968;3.134;2024-02-28T08:34:44;6.82;;;6.20;;
18104;SDS011;9179;50.968;3.134;2024-02-28T08:37:11;10.55;;;5.63;;
18104;SDS011;9179;50.968;3.134;2024-02-28T08:39:38;7.20;;;5.65;;
18104;SDS011;9179;50.968;3.134;2024-02-28T08:42:07;6.07;;;5.43;;
18104;SDS011;9179;50.968;3.134;2024-02-28T08:44:34;6.45;;;5.50;;
18104;SDS011;9179;50.968;3.134;2024-02-28T08:47:02;6.43;;;5.78;;
18104;SDS011;9179;50.968;3.134;2024-02-28T08:49:29;7.00;;;6.10;;
18104;SDS011;9179;50.968;3.134;2024-02-28T08:51:56;6.25;;;5.60;;
18104;SDS011;9179;50.968;3.134;2024-02-28T08:54:23;8.27;;;5.82;;
18104;SDS011;9179;50.968;3.134;2024-02-28T08:56:50;6.30;;;5.70;;
18104;SDS011;9179;50.968;3.134;2024-02-28T08:59:19;8.13;;;5.88;;
18104;SDS011;9179;50.968;3.134;2024-02-28T09:01:47;6.53;;;5.97;;
18104;SDS011;9179;50.968;3.134;2024-02-28T09:04:14;7.47;;;5.85;;
18104;SDS011;9179;50.968;3.134;2024-02-28T09:06:41;8.40;;;6.07;;
18104;SDS011;9179;50.968;3.134;2024-02-28T09:09:07;7.60;;;6.10;;
18104;SDS011;9179;50.968;3.134;2024-02-28T09:11:35;7.25;;;6.55;;
18104;SDS011;9179;50.968;3.134;2024-02-28T09:14:02;9.85;;;8.40;;
18104;SDS011;9179;50.968;3.134;2024-02-28T09:16:31;9.25;;;6.97;;
18104;SDS011;9179;50.968;3.134;2024-02-28T09:18:58;8.55;;;7.68;;
18104;SDS011;9179;50.968;3.134;2024-02-28T09:21:25;8.50;;;6.93;;
18104;SDS011;9179;50.968;3.134;2024-02-28T09:23:52;8.80;;;7.95;;
18104;SDS011;9179;50.968;3.134;2024-02-28T09:26:18;9.27;;;7.93;;
18104;SDS011;9179;50.968;3.134;2024-02-28T09:28:45;7.90;;;7.20;;
18104;SDS011;9179;50.968;3.134;2024-02-28T09:31:13;7.68;;;6.88;;
18104;SDS011;9179;50.968;3.134;2024-02-28T09:33:42;11.10;;;7.22;;
18104;SDS011;9179;50.968;3.134;2024-02-28T09:36:10;7.97;;;7.18;;
18104;SDS011;9179;50.968;3.134;2024-02-28T09:38:37;8.60;;;6.88;;
18104;SDS011;9179;50.968;3.134;2024-02-28T09:41:06;10.10;;;8.20;;
18104;SDS011;9179;50.968;3.134;2024-02-28T09:43:40;8.80;;;7.63;;
18104;SDS011;9179;50.968;3.134;2024-02-28T09:46:08;10.25;;;8.73;;
18104;SDS011;9179;50.968;3.134;2024-02-28T09:48:37;9.98;;;8.98;;
18104;SDS011;9179;50.968;3.134;2024-02-28T09:51:07;12.65;;;8.68;;
18104;SDS011;9179;50.968;3.134;2024-02-28T09:53:35;11.18;;;8.40;;
18104;SDS011;9179;50.968;3.134;2024-02-28T09:56:03;11.18;;;10.05;;
18104;SDS011;9179;50.968;3.134;2024-02-28T09:58:32;10.68;;;9.55;;
18104;SDS011;9179;50.968;3.134;2024-02-28T10:01:01;10.02;;;9.02;;
18104;SDS011;9179;50.968;3.134;2024-02-28T10:03:30;10.77;;;8.95;;
18104;SDS011;9179;50.968;3.134;2024-02-28T10:05:58;11.07;;;9.25;;
18104;SDS011;9179;50.968;3.134;2024-02-28T10:08:26;9.30;;;8.15;;
18104;SDS011;9179;50.968;3.134;2024-02-28T10:10:54;9.70;;;8.57;;
18104;SDS011;9179;50.968;3.134;2024-02-28T10:13:21;13.02;;;7.65;;
18104;SDS011;9179;50.968;3.134;2024-02-28T10:15:48;11.80;;;7.95;;
18104;SDS011;9179;50.968;3.134;2024-02-28T10:18:16;11.07;;;7.72;;
18104;SDS011;9179;50.968;3.134;2024-02-28T10:20:43;8.82;;;8.02;;
18104;SDS011;9179;50.968;3.134;2024-02-28T10:23:09;9.18;;;7.22;;
18104;SDS011;9179;50.968;3.134;2024-02-28T10:25:43;10.48;;;7.18;;
18104;SDS011;9179;50.968;3.134;2024-02-28T10:28:10;7.57;;;6.88;;
18104;SDS011;9179;50.968;3.134;2024-02-28T10:30:39;8.48;;;7.00;;
18104;SDS011;9179;50.968;3.134;2024-02-28T10:33:10;10.00;;;8.07;;
18104;SDS011;9179;50.968;3.134;2024-02-28T10:35:39;10.07;;;7.72;;
18104;SDS011;9179;50.968;3.134;2024-02-28T10:38:07;10.10;;;6.85;;
18104;SDS011;9179;50.968;3.134;2024-02-28T10:40:36;10.75;;;8.73;;
18104;SDS011;9179;50.968;3.134;2024-02-28T10:43:05;11.93;;;8.30;;
18104;SDS011;9179;50.968;3.134;2024-02-28T10:45:34;10.82;;;8.63;;
18104;SDS011;9179;50.968;3.134;2024-02-28T10:48:03;9.82;;;8.60;;
18104;SDS011;9179;50.968;3.134;2024-02-28T10:50:31;14.10;;;9.65;;
18104;SDS011;9179;50.968;3.134;2024-02-28T10:52:59;12.43;;;9.13;;
18104;SDS011;9179;50.968;3.134;2024-02-28T10:55:30;11.40;;;10.07;;
18104;SDS011;9179;50.968;3.134;2024-02-28T10:58:01;11.38;;;10.18;;
18104;SDS011;9179;50.968;3.134;2024-02-28T11:00:30;10.55;;;9.05;;
18104;SDS011;9179;50.968;3.134;2024-02-28T11:02:59;12.10;;;10.15;;
18104;SDS011;9179;50.968;3.134;2024-02-28T11:05:35;11.07;;;9.90;;
18104;SDS011;9179;50.968;3.134;2024-02-28T11:08:03;10.88;;;9.88;;
18104;SDS011;9179;50.968;3.134;2024-02-28T11:10:31;10.93;;;9.73;;
18104;SDS011;9179;50.968;3.134;2024-02-28T11:12:58;15.05;;;11.48;;
18104;SDS011;9179;50.968;3.134;2024-02-28T11:15:25;11.45;;;9.65;;
18104;SDS011;9179;50.968;3.134;2024-02-28T11:17:54;10.40;;;8.95;;
18104;SDS011;9179;50.968;3.134;2024-02-28T11:20:21;10.13;;;8.45;;
18104;SDS011;9179;50.968;3.134;2024-02-28T11:22:48;8.88;;;7.43;;
18104;SDS011;9179;50.968;3.134;2024-02-28T11:25:22;7.20;;;6.50;;
18104;SDS011;9179;50.968;3.134;2024-02-28T11:27:49;7.88;;;7.07;;
18104;SDS011;9179;50.968;3.134;2024-02-28T11:30:16;7.97;;;7.18;;
18104;SDS011;9179;50.968;3.134;2024-02-28T11:32:44;7.38;;;6.72;;
18104;SDS011;9179;50.968;3.134;2024-02-28T11:35:12;6.97;;;6.38;;
18104;SDS011;9179;50.968;3.134;2024-02-28T11:37:39;7.55;;;6.43;;
18104;SDS011;9179;50.968;3.134;2024-02-28T11:40:07;6.45;;;5.90;;
18104;SDS011;9179;50.968;3.134;2024-02-28T11:42:35;6.05;;;5.50;;
18104;SDS011;9179;50.968;3.134;2024-02-28T11:45:02;9.02;;;5.22;;
18104;SDS011;9179;50.968;3.134;2024-02-28T11:47:31;6.85;;;4.25;;
18104;SDS011;9179;50.968;3.134;2024-02-28T11:49:58;5.40;;;4.63;;
18104;SDS011;9179;50.968;3.134;2024-02-28T11:52:28;5.35;;;4.80;;
18104;SDS011;9179;50.968;3.134;2024-02-28T11:54:56;4.90;;;4.50;;
18104;SDS011;9179;50.968;3.134;2024-02-28T11:57:23;5.18;;;4.40;;
18104;SDS011;9179;50.968;3.134;2024-02-28T11:59:50;4.82;;;4.43;;
18104;SDS011;9179;50.968;3.134;2024-02-28T12:02:18;4.53;;;4.13;;
18104;SDS011;9179;50.968;3.134;2024-02-28T12:04:45;3.15;;;2.95;;
18104;SDS011;9179;50.968;3.134;2024-02-28T12:07:15;4.45;;;4.05;;
18104;SDS011;9179;50.968;3.134;2024-02-28T12:09:43;3.45;;;3.17;;
18104;SDS011;9179;50.968;3.134;2024-02-28T12:12:11;3.85;;;3.40;;
18104;SDS011;9179;50.968;3.134;2024-02-28T12:14:39;2.78;;;2.50;;
18104;SDS011;9179;50.968;3.134;2024-02-28T12:17:07;3.53;;;3.22;;
18104;SDS011;9179;50.968;3.134;2024-02-28T12:19:35;3.13;;;2.88;;
18104;SDS011;9179;50.968;3.134;2024-02-28T12:22:02;3.38;;;3.08;;
18104;SDS011;9179;50.968;3.134;2024-02-28T12:24:29;3.95;;;2.47;;
18104;SDS011;9179;50.968;3.134;2024-02-28T12:26:57;3.60;;;3.28;;
18104;SDS011;9179;50.968;3.134;2024-02-28T12:29:24;3.38;;;2.97;;
18104;SDS011;9179;50.968;3.134;2024-02-28T12:31:51;2.70;;;2.50;;
18104;SDS011;9179;50.968;3.134;2024-02-28T12:34:18;3.00;;;2.80;;
18104;SDS011;9179;50.968;3.134;2024-02-28T12:36:46;3.22;;;2.75;;
18104;SDS011;9179;50.968;3.134;2024-02-28T12:39:13;4.53;;;2.85;;
18104;SDS011;9179;50.968;3.134;2024-02-28T12:41:40;3.30;;;2.72;;
18104;SDS011;9179;50.968;3.134;2024-02-28T12:44:08;3.28;;;2.95;;
18104;SDS011;9179;50.968;3.134;2024-02-28T12:46:35;4.32;;;2.65;;
18104;SDS011;9179;50.968;3.134;2024-02-28T12:49:02;2.63;;;2.50;;
18104;SDS011;9179;50.968;3.134;2024-02-28T12:51:36;2.60;;;2.40;;
18104;SDS011;9179;50.968;3.134;2024-02-28T12:54:05;2.65;;;2.42;;
18104;SDS011;9179;50.968;3.134;2024-02-28T12:56:33;3.35;;;2.85;;
18104;SDS011;9179;50.968;3.134;2024-02-28T12:59:00;4.03;;;2.35;;
18104;SDS011;9179;50.968;3.134;2024-02-28T13:01:29;2.85;;;2.65;;
18104;SDS011;9179;50.968;3.134;2024-02-28T13:03:56;2.05;;;1.95;;
18104;SDS011;9179;50.968;3.134;2024-02-28T13:06:23;2.60;;;2.42;;
18104;SDS011;9179;50.968;3.134;2024-02-28T13:08:50;2.67;;;2.45;;
18104;SDS011;9179;50.968;3.134;2024-02-28T13:11:18;2.85;;;2.22;;
18104;SDS011;9179;50.968;3.134;2024-02-28T13:13:46;2.28;;;1.92;;
18104;SDS011;9179;50.968;3.134;2024-02-28T13:16:13;2.22;;;1.70;;
18104;SDS011;9179;50.968;3.134;2024-02-28T13:18:41;1.75;;;1.65;;
18104;SDS011;9179;50.968;3.134;2024-02-28T13:21:08;2.20;;;1.92;;
18104;SDS011;9179;50.968;3.134;2024-02-28T13:23:35;1.63;;;1.52;;
18104;SDS011;9179;50.968;3.134;2024-02-28T13:26:03;3.22;;;1.70;;
18104;SDS011;9179;50.968;3.134;2024-02-28T13:28:30;1.63;;;1.52;;
18104;SDS011;9179;50.968;3.134;2024-02-28T13:30:57;1.55;;;1.55;;
18104;SDS011;9179;50.968;3.134;2024-02-28T13:33:25;3.63;;;2.00;;
18104;SDS011;9179;50.968;3.134;2024-02-28T13:35:53;2.45;;;1.52;;
18104;SDS011;9179;50.968;3.134;2024-02-28T13:38:21;3.03;;;2.10;;
18104;SDS011;9179;50.968;3.134;2024-02-28T13:40:48;2.22;;;2.10;;
18104;SDS011;9179;50.968;3.134;2024-02-28T13:43:16;2.00;;;1.80;;
18104;SDS011;9179;50.968;3.134;2024-02-28T13:45:45;3.13;;;1.67;;
18104;SDS011;9179;50.968;3.134;2024-02-28T13:48:15;2.00;;;1.90;;
18104;SDS011;9179;50.968;3.134;2024-02-28T13:50:43;1.80;;;1.70;;
18104;SDS011;9179;50.968;3.134;2024-02-28T13:53:12;1.90;;;1.80;;
18104;SDS011;9179;50.968;3.134;2024-02-28T13:55:40;1.73;;;1.63;;
18104;SDS011;9179;50.968;3.134;2024-02-28T13:58:07;2.15;;;2.05;;
18104;SDS011;9179;50.968;3.134;2024-02-28T14:00:35;1.63;;;1.52;;
18104;SDS011;9179;50.968;3.134;2024-02-28T14:03:03;1.90;;;1.60;;
18104;SDS011;9179;50.968;3.134;2024-02-28T14:05:31;2.22;;;1.75;;
18104;SDS011;9179;50.968;3.134;2024-02-28T14:07:58;1.75;;;1.65;;
18104;SDS011;9179;50.968;3.134;2024-02-28T14:10:26;1.98;;;1.77;;
18104;SDS011;9179;50.968;3.134;2024-02-28T14:12:53;1.38;;;1.35;;
18104;SDS011;9179;50.968;3.134;2024-02-28T14:15:21;1.30;;;1.20;;
18104;SDS011;9179;50.968;3.134;2024-02-28T14:17:48;1.10;;;1.10;;
18104;SDS011;9179;50.968;3.134;2024-02-28T14:20:16;1.67;;;1.58;;
18104;SDS011;9179;50.968;3.134;2024-02-28T14:22:43;1.40;;;1.30;;
18104;SDS011;9179;50.968;3.134;2024-02-28T14:25:10;1.70;;;1.60;;
18104;SDS011;9179;50.968;3.134;2024-02-28T14:27:41;1.80;;;1.70;;
18104;SDS011;9179;50.968;3.134;2024-02-28T14:30:10;1.80;;;1.70;;
18104;SDS011;9179;50.968;3.134;2024-02-28T14:32:41;1.80;;;1.70;;
18104;SDS011;9179;50.968;3.134;2024-02-28T14:35:09;7.93;;;6.20;;
18104;SDS011;9179;50.968;3.134;2024-02-28T14:37:37;2.13;;;2.00;;
18104;SDS011;9179;50.968;3.134;2024-02-28T14:40:05;1.58;;;1.48;;
18104;SDS011;9179;50.968;3.134;2024-02-28T14:42:36;2.15;;;1.90;;
18104;SDS011;9179;50.968;3.134;2024-02-28T14:45:05;1.73;;;1.63;;
18104;SDS011;9179;50.968;3.134;2024-02-28T14:47:33;1.95;;;1.85;;
18104;SDS011;9179;50.968;3.134;2024-02-28T14:50:01;2.25;;;2.05;;
18104;SDS011;9179;50.968;3.134;2024-02-28T14:52:28;2.17;;;2.08;;
18104;SDS011;9179;50.968;3.134;2024-02-28T14:54:55;3.55;;;3.08;;
18104;SDS011;9179;50.968;3.134;2024-02-28T14:57:22;3.08;;;2.58;;